Sunday, November 18, 2018, 2:23 PM GMT
Back to Local

CWOD, Normandin

Location: , , Canada Lat: 48.833
Local Time: 2:23 PM GMT (14:23 GMT) Lon: -72.55
Time Zone: GMT Elev: 449 ft

Show me the last for .
Show Decoded

2018-11-18 14:00 METAR CWOD 181400Z AUTO 30005KT M11/M16 RMK AO1 SOG 12 0007 SLP246 T11061162 =
2018-11-18 13:00 METAR CWOD 181300Z AUTO 29007KT M11/M17 RMK AO1 SOG 12 3014 SLP248 T11061166 =
2018-11-18 12:00 METAR CWOD 181200Z AUTO 27005KT M11/M16 RMK AO1 SOG 12 1013 SLP242 T11101160 =
2018-11-18 11:00 METAR CWOD 181100Z AUTO 25006KT M11/M16 RMK AO1 SOG 12 3012 SLP238 T11121163 =
2018-11-18 10:00 METAR CWOD 181000Z AUTO 29005KT M11/M17 RMK AO1 SOG 12 3011 SLP233 T11121174 =
2018-11-18 09:00 METAR CWOD 180900Z AUTO 27009KT M11/M17 RMK AO1 SOG 12 1010 SLP228 T11101166 =
2018-11-18 08:00 METAR CWOD 180800Z AUTO 31003KT M11/M14 RMK AO1 SOG 12 2012 SLP225 T11071144 =
2018-11-18 07:00 METAR CWOD 180700Z AUTO 28008KT M10/M16 RMK AO1 SOG 12 1017 SLP221 T10981155 =
2018-11-18 06:00 METAR CWOD 180600Z AUTO 28005KT M10/M15 RMK AO1 SOG 12 1021 SLP217 T11021148 =
2018-11-18 05:00 METAR CWOD 180500Z AUTO 30009KT M11/M15 RMK AO1 SOG 12 1027 SLP213 T11081153 =
2018-11-18 04:00 METAR CWOD 180400Z AUTO 29012KT M11/M15 RMK AO1 SOG 12 3025 PK WND 30025/0314
                 SLP204 T11101154 =
2018-11-18 03:00 METAR CWOD 180300Z AUTO 28015G20KT M09/M14 RMK AO1 SOG 12 3026 PK WND 30023/0201
                 SLP195 T10851141 =
2018-11-18 02:00 METAR CWOD 180200Z AUTO 29016G23KT M08/M13 RMK AO1 SOG 12 1027 PK WND 29023/0158
                 SLP185 T10831127 =
2018-11-18 01:00 METAR CWOD 180100Z AUTO 30011G17KT M08/M12 RMK AO1 SOG 13 2029 PK WND 30017/0059
                 SLP179 T10801122 =
2018-11-18 00:00 METAR CWOD 180000Z AUTO 29010KT M08/M12 RMK AO1 SOG 13 2031 PK WND 30019/2333
                 SLP170 T10781115 =
2018-11-17 23:00 METAR CWOD 172300Z AUTO 29012KT M07/M11 RMK AO1 SOG 11 1032 PK WND 29020/2228
                 SLP158 T10671111 =
2018-11-17 22:00 METAR CWOD 172200Z AUTO 28015KT M06/M10 RMK AO1 SOG 07 1035 PK WND 27019/2154
                 SLP149 T10581104 =
2018-11-17 21:00 METAR CWOD 172100Z AUTO 28015G21KT M05/M09 RMK AO1 SOG 08 1037 PK WND 28022/2048
                 SLP138 T10461093 =
2018-11-17 20:00 METAR CWOD 172000Z AUTO 30016KT M03/M09 RMK AO1 SOG 08 3035 PK WND 29021/1949
                 SLP125 T10341087 =
2018-11-17 19:00 METAR CWOD 171900Z AUTO 29016KT M03/M08 RMK AO1 SOG 13 3030 PK WND 30025/1800
                 SLP113 T10331075 =
2018-11-17 18:00 METAR CWOD 171800Z AUTO 28017G27KT M03/M08 RMK AO1 SOG 08 3024 PK WND 27028/1700
                 SLP099 T10341077 =
2018-11-17 17:00 METAR CWOD 171700Z AUTO 29018G27KT M03/M08 RMK AO1 SOG 07 1023 PK WND 29027/1700
                 SLP089 T10341078 =
2018-11-17 16:00 METAR CWOD 171600Z AUTO 29015G20KT M02/M07 RMK AO1 SOG 08 3022 PK WND 28025/1537
                 SLP082 T10241066 =
2018-11-17 15:00 METAR CWOD 171500Z AUTO 27011KT M02/M06 RMK AO1 SOG 11 1025 SLP075 T10241057 =

Support USWX by starting your Amazon purchase here.